Celtic Voyager — EIQN — position and weather

sailwx.info

Track history (hours):
 
Tides and Currents Weather Stations Pressure Air Temp Water Temp Dewpoint Dewpoint Depression Visibility Wind Speed Wind Dir Waves Ship Positions

Oceanographic research ship Celtic Voyager (Ireland)

Detailed information on ship capabilities available from University of Delaware's Ocean Information Center.

Last reported at 2020-Mar-13 20:30 UTC. Time now 2020-Apr-03 07:02 UTC.
Position N 51°28' W 009°59'.
Warning: this ship's position is 20 days out of date.

Length 31 m; beam 8 m.

Type: Ship. MMSI: 250089000.

Date/timePositionNaut miles runAvg speedWind from/ knotsBaromVisibWave heightAir tempDewpointWater temp
2020-Mar-13 20:30N 51°28' W 009°59'11 7.6
2020-Mar-13 19:00N 51°25' W 009°42'4 7.7
2020-Mar-13 18:30N 51°25' W 009°35'5 7.3
2020-Mar-13 17:53N 51°25' W 009°28'48 8.2
2020-Mar-13 12:00N 51°43' W 008°17'12 4.3
2020-Mar-13 09:08N 51°54' W 008°27'0 0.0
2020-Mar-13 07:29N 51°54' W 008°27'0 0.0
2020-Mar-13 06:23N 51°54' W 008°27'0 0.0
2020-Mar-13 05:50N 51°54' W 008°27'0 0.0
2020-Mar-12 21:26N 51°54' W 008°27'0 0.0
2020-Mar-12 20:59N 51°54' W 008°27'0 0.0
2020-Mar-12 20:26N 51°54' W 008°27'0 0.0
2020-Mar-12 14:47N 51°54' W 008°27'0 0.0
2020-Mar-12 11:55N 51°54' W 008°27'0 0.0
2020-Mar-12 09:26N 51°54' W 008°27'0 0.0
2020-Mar-11 18:25N 51°54' W 008°27'0 0.0
2020-Mar-11 16:58N 51°54' W 008°27'0 0.0
2020-Mar-11 15:22N 51°54' W 008°27'8 1.6
2020-Mar-11 10:30N 51°51' W 008°16'48 6.4
2020-Mar-11 03:00N 52°04' W 007°01'34 8.5
2020-Mar-10 23:00N 52°18' W 006°11'16 7.8
2020-Mar-10 20:58N 52°34' W 006°05'20 6.5
2020-Mar-10 17:53N 52°53' W 005°58'32 9.6
2020-Mar-10 14:30N 53°26' W 006°02'56 7.7
2020-Mar-10 07:14N 54°17' W 005°25'810.0
2020-Mar-10 06:24N 54°25' W 005°20'14 9.9
2020-Mar-10 05:00N 54°38' W 005°26'5 9.3
2020-Mar-10 04:30N 54°43' W 005°28'4 8.7
2020-Mar-10 03:59N 54°46' W 005°33'31 7.1
2020-Mar-09 23:40N 55°12' W 006°02'  
2020-Mar-05 06:00N 55°33' W 006°52'1 2.0
2020-Mar-05 05:29N 55°32' W 006°51'2 1.2
2020-Mar-05 03:38N 55°31' W 006°48'2 0.8
2020-Mar-05 01:30N 55°29' W 006°47'3 1.1
2020-Mar-04 22:48N 55°27' W 006°45'2 1.2
2020-Mar-04 21:28N 55°25' W 006°45'  
Track history (hours):
 
Tides and Currents Weather Stations Pressure Air Temp Water Temp Dewpoint Dewpoint Depression Visibility Wind Speed Wind Dir Waves Ship Positions

Oceanographic research ship Celtic Voyager (Ireland)

Detailed information on ship capabilities available from University of Delaware's Ocean Information Center.

Last reported at 2020-Mar-13 20:30 UTC. Time now 2020-Apr-03 07:02 UTC.
Position N 51°28' W 009°59'.
Warning: this ship's position is 20 days out of date.

Length 31 m; beam 8 m.

Type: Ship. MMSI: 250089000.

Date/timePositionNaut miles runAvg speedWind from/ knotsBaromVisibWave heightAir tempDewpointWater temp
2020-Mar-13 20:30N 51°28' W 009°59'11 7.6
2020-Mar-13 19:00N 51°25' W 009°42'4 7.7
2020-Mar-13 18:30N 51°25' W 009°35'5 7.3
2020-Mar-13 17:53N 51°25' W 009°28'48 8.2
2020-Mar-13 12:00N 51°43' W 008°17'12 4.3
2020-Mar-13 09:08N 51°54' W 008°27'0 0.0
2020-Mar-13 07:29N 51°54' W 008°27'0 0.0
2020-Mar-13 06:23N 51°54' W 008°27'0 0.0
2020-Mar-13 05:50N 51°54' W 008°27'0 0.0
2020-Mar-12 21:26N 51°54' W 008°27'0 0.0
2020-Mar-12 20:59N 51°54' W 008°27'0 0.0
2020-Mar-12 20:26N 51°54' W 008°27'0 0.0
2020-Mar-12 14:47N 51°54' W 008°27'0 0.0
2020-Mar-12 11:55N 51°54' W 008°27'0 0.0
2020-Mar-12 09:26N 51°54' W 008°27'0 0.0
2020-Mar-11 18:25N 51°54' W 008°27'0 0.0
2020-Mar-11 16:58N 51°54' W 008°27'0 0.0
2020-Mar-11 15:22N 51°54' W 008°27'8 1.6
2020-Mar-11 10:30N 51°51' W 008°16'48 6.4
2020-Mar-11 03:00N 52°04' W 007°01'34 8.5
2020-Mar-10 23:00N 52°18' W 006°11'16 7.8
2020-Mar-10 20:58N 52°34' W 006°05'20 6.5
2020-Mar-10 17:53N 52°53' W 005°58'32 9.6
2020-Mar-10 14:30N 53°26' W 006°02'56 7.7
2020-Mar-10 07:14N 54°17' W 005°25'810.0
2020-Mar-10 06:24N 54°25' W 005°20'14 9.9
2020-Mar-10 05:00N 54°38' W 005°26'5 9.3
2020-Mar-10 04:30N 54°43' W 005°28'4 8.7
2020-Mar-10 03:59N 54°46' W 005°33'31 7.1
2020-Mar-09 23:40N 55°12' W 006°02'  
2020-Mar-05 06:00N 55°33' W 006°52'1 2.0
2020-Mar-05 05:29N 55°32' W 006°51'2 1.2
2020-Mar-05 03:38N 55°31' W 006°48'2 0.8
2020-Mar-05 01:30N 55°29' W 006°47'3 1.1
2020-Mar-04 22:48N 55°27' W 006°45'2 1.2
2020-Mar-04 21:28N 55°25' W 006°45'  

Dump ship's entire track history